Time;durP1;ratioP1;P1;durP2;ratioP2;P2;SDS_P1;SDS_P2;PMS_P1;PMS_P2;Temp;Humidity;BMP_temperature;BMP_pressure;BME280_temperature;BME280_humidity;BME280_pressure;Samples;Min_cycle;Max_cycle;Signal;HPM_P1;HPM_P2
2022/11/06 00:00:00;;;;;;;5.88;2.30;;;15.40;99.90;;;;;;5047538;28;20507;-74
2022/11/06 00:02:28;;;;;;;6.90;3.33;;;15.40;99.90;;;;;;5064536;28;20114;-74
2022/11/06 00:06:46;;;;;;;7.95;3.22;;;15.40;99.90;;;;;;5062388;28;20449;-76
2022/11/06 00:07:47;;;;;;;6.22;2.42;;;15.50;99.90;;;;;;5061448;28;20452;-74
2022/11/06 00:10:16;;;;;;;81.45;74.75;;;15.50;99.90;;;;;;5059850;28;20049;-77
2022/11/06 00:12:44;;;;;;;3.42;1.73;;;15.50;99.90;;;;;;5045701;28;20140;-73
2022/11/06 00:15:12;;;;;;;7.68;3.63;;;15.60;99.90;;;;;;5060944;28;20146;-73
2022/11/06 00:17:40;;;;;;;6.25;1.98;;;15.60;99.90;;;;;;5044833;28;20052;-75
2022/11/06 00:20:08;;;;;;;5.30;1.70;;;15.60;99.90;;;;;;5064159;28;20059;-74
2022/11/06 00:22:36;;;;;;;7.05;3.30;;;15.60;99.90;;;;;;5047017;28;20044;-75
2022/11/06 00:25:06;;;;;;;6.78;2.83;;;15.60;99.90;;;;;;5048693;28;20079;-74
2022/11/06 00:27:38;;;;;;;6.97;2.38;;;15.60;99.90;;;;;;5045026;28;20117;-73
2022/11/06 00:30:08;;;;;;;5.43;2.53;;;15.60;99.90;;;;;;5047215;28;20055;-74
2022/11/06 00:32:37;;;;;;;9.40;2.85;;;15.60;99.90;;;;;;5031362;28;20048;-75
2022/11/06 00:35:06;;;;;;;7.25;2.47;;;15.60;99.90;;;;;;5064704;28;20055;-74
2022/11/06 00:37:34;;;;;;;5.70;2.15;;;15.50;99.90;;;;;;5031425;28;20588;-74
2022/11/06 00:40:02;;;;;;;4.45;2.10;;;15.60;99.90;;;;;;5046617;28;20052;-75
2022/11/06 00:42:30;;;;;;;6.50;2.20;;;15.50;99.90;;;;;;5047777;28;20036;-74
2022/11/06 00:44:57;;;;;;;4.40;2.05;;;15.60;99.90;;;;;;5047704;28;20036;-74
2022/11/06 00:47:25;;;;;;;6.90;2.83;;;15.60;99.90;;;;;;5063427;28;20408;-74
2022/11/06 00:49:53;;;;;;;4.22;2.55;;;15.50;99.90;;;;;;5058763;28;20064;-73
2022/11/06 00:52:20;;;;;;;7.15;2.50;;;15.50;99.90;;;;;;5045237;28;20084;-75
2022/11/06 00:54:48;;;;;;;3.40;2.53;;;15.50;99.90;;;;;;5043274;28;20556;-75
2022/11/06 00:57:15;;;;;;;5.03;2.00;;;15.50;99.90;;;;;;5062532;28;20045;-74
2022/11/06 00:59:43;;;;;;;11.10;2.78;;;15.50;99.90;;;;;;5054994;28;20037;-75
2022/11/06 01:02:11;;;;;;;3.70;2.13;;;15.50;99.90;;;;;;5048852;28;20067;-74
2022/11/06 01:04:38;;;;;;;4.15;2.65;;;15.50;99.90;;;;;;5066311;28;20773;-74
2022/11/06 01:07:06;;;;;;;3.08;2.03;;;15.50;99.90;;;;;;5049366;28;20040;-74
2022/11/06 01:09:33;;;;;;;4.65;1.95;;;15.50;99.90;;;;;;5066753;28;20063;-75
2022/11/06 01:12:01;;;;;;;5.95;2.33;;;15.50;99.90;;;;;;5066069;28;20209;-74
2022/11/06 01:14:44;;;;;;;6.60;2.60;;;15.40;99.90;;;;;;5039123;28;20048;-78
2022/11/06 01:17:12;;;;;;;9.10;2.70;;;15.40;99.90;;;;;;5066142;28;20052;-77
2022/11/06 01:19:40;;;;;;;3.60;2.30;;;15.40;99.90;;;;;;5045500;28;20033;-73
2022/11/06 01:22:09;;;;;;;8.07;2.70;;;15.50;99.90;;;;;;5046754;28;20471;-74
2022/11/06 01:24:36;;;;;;;4.32;3.03;;;15.50;99.90;;;;;;5028361;28;20080;-74
2022/11/06 01:27:04;;;;;;;5.75;3.22;;;15.50;99.90;;;;;;5050015;28;20116;-74
2022/11/06 01:29:50;;;;;;;8.48;4.05;;;15.50;99.90;;;;;;5063096;28;20122;-73
2022/11/06 01:32:18;;;;;;;5.32;2.85;;;15.50;99.90;;;;;;5032396;28;20053;-73
2022/11/06 01:34:47;;;;;;;6.53;3.58;;;15.50;99.90;;;;;;5049811;28;20155;-75
2022/11/06 01:37:15;;;;;;;8.02;2.88;;;15.50;99.90;;;;;;5051919;28;20070;-74
2022/11/06 01:39:42;;;;;;;4.03;2.85;;;15.50;99.90;;;;;;5064435;28;20056;-75
2022/11/06 01:42:12;;;;;;;3.88;2.53;;;15.50;99.90;;;;;;5068466;28;20189;-74
2022/11/06 01:44:42;;;;;;;7.80;3.03;;;15.40;99.90;;;;;;5057192;28;20048;-77
2022/11/06 01:47:27;;;;;;;3.65;2.50;;;15.40;99.90;;;;;;5067451;28;20036;-74
2022/11/06 01:49:59;;;;;;;4.57;2.83;;;15.40;99.90;;;;;;5057833;28;20466;-78
2022/11/06 01:52:28;;;;;;;5.75;2.72;;;15.40;99.90;;;;;;5065999;28;20154;-74
2022/11/06 01:55:01;;;;;;;6.65;3.17;;;15.40;99.90;;;;;;5049960;28;20052;-74
2022/11/06 01:57:29;;;;;;;4.75;2.50;;;15.40;99.90;;;;;;5060437;28;20152;-76
2022/11/06 01:59:59;;;;;;;5.30;3.20;;;15.40;99.90;;;;;;5044971;28;20048;-75
2022/11/06 02:02:27;;;;;;;3.55;2.55;;;15.40;99.90;;;;;;5037632;28;20056;-74
2022/11/06 02:04:54;;;;;;;5.05;2.88;;;15.40;99.90;;;;;;5046738;28;20560;-74
2022/11/06 02:07:22;;;;;;;5.55;2.50;;;15.40;99.90;;;;;;5045225;28;20469;-74
2022/11/06 02:09:50;;;;;;;3.95;2.08;;;15.40;99.90;;;;;;5062049;28;20036;-74
2022/11/06 02:12:53;;;;;;;6.10;2.55;;;15.40;99.90;;;;;;5065793;28;20048;-75
2022/11/06 02:16:08;;;;;;;6.60;2.55;;;15.40;99.90;;;;;;5057657;28;20511;-78
2022/11/06 02:18:36;;;;;;;3.90;2.22;;;15.40;99.90;;;;;;5045452;28;20053;-75
2022/11/06 02:21:12;;;;;;;9.50;3.45;;;15.40;99.90;;;;;;5045081;28;20052;-76
2022/11/06 02:23:54;;;;;;;4.00;2.53;;;15.40;99.90;;;;;;5049275;28;20401;-76
2022/11/06 02:26:33;;;;;;;3.33;2.15;;;15.40;99.90;;;;;;5030906;28;20892;-75
2022/11/06 02:29:09;;;;;;;6.32;2.30;;;15.30;99.90;;;;;;5050184;28;20036;-74
2022/11/06 02:31:40;;;;;;;6.45;3.60;;;15.30;99.90;;;;;;5049191;28;20044;-74
2022/11/06 02:34:12;;;;;;;5.50;3.20;;;15.20;99.90;;;;;;5067122;28;20060;-74
2022/11/06 02:36:52;;;;;;;5.97;3.30;;;15.10;99.90;;;;;;5033817;28;20094;-76
2022/11/06 02:39:23;;;;;;;4.07;2.50;;;15.10;99.90;;;;;;5035177;28;20478;-74
2022/11/06 02:41:52;;;;;;;5.13;3.03;;;15.10;99.90;;;;;;5051460;28;20072;-73
2022/11/06 02:44:25;;;;;;;5.30;3.85;;;15.20;99.90;;;;;;5034616;28;20045;-74
2022/11/06 02:46:56;;;;;;;4.03;2.78;;;15.10;99.90;;;;;;5068086;28;20060;-74
2022/11/06 02:49:52;;;;;;;6.00;2.85;;;15.00;99.90;;;;;;5069219;28;20045;-74
2022/11/06 02:52:25;;;;;;;3.10;2.28;;;15.00;99.90;;;;;;5049756;28;20052;-74
2022/11/06 02:55:07;;;;;;;4.63;2.30;;;15.00;99.90;;;;;;5066251;28;20143;-74
2022/11/06 02:57:38;;;;;;;4.43;2.85;;;15.00;99.90;;;;;;5049915;28;20064;-74
2022/11/06 03:00:12;;;;;;;6.03;2.90;;;15.10;99.90;;;;;;5067161;28;20055;-74
2022/11/06 03:02:51;;;;;;;4.82;2.22;;;15.00;99.90;;;;;;5066232;28;20068;-74
2022/11/06 03:05:37;;;;;;;3.15;2.00;;;15.10;99.90;;;;;;5066557;28;20445;-74
2022/11/06 03:08:22;;;;;;;2.80;2.17;;;15.10;99.90;;;;;;5051113;28;20041;-74
2022/11/06 03:11:12;;;;;;;3.85;2.60;;;15.00;99.90;;;;;;5051205;28;20055;-74
2022/11/06 03:13:50;;;;;;;3.70;2.30;;;15.00;99.90;;;;;;5068813;28;20071;-76
2022/11/06 03:16:36;;;;;;;2.90;2.00;;;15.00;99.90;;;;;;5050466;28;20048;-74
2022/11/06 03:19:31;;;;;;;4.35;2.38;;;15.00;99.90;;;;;;5051112;28;20044;-74
2022/11/06 03:22:18;;;;;;;2.95;1.83;;;15.00;99.90;;;;;;5061119;28;20507;-74
2022/11/06 03:24:57;;;;;;;4.15;2.00;;;15.00;99.90;;;;;;5067467;28;20051;-75
2022/11/06 03:27:54;;;;;;;4.25;2.72;;;15.00;99.90;;;;;;5064157;28;20410;-74
2022/11/06 03:30:21;;;;;;;2.75;1.50;;;15.00;99.90;;;;;;5052102;28;20094;-74
2022/11/06 03:32:51;;;;;;;5.32;2.67;;;15.00;99.90;;;;;;5067512;28;20478;-74
2022/11/06 03:35:25;;;;;;;2.90;1.58;;;15.00;99.90;;;;;;5050640;28;20083;-74
2022/11/06 03:38:20;;;;;;;3.88;2.05;;;14.90;99.90;;;;;;5050949;28;20486;-74
2022/11/06 03:40:52;;;;;;;3.47;1.83;;;15.00;99.90;;;;;;5030139;28;20049;-74
2022/11/06 03:43:25;;;;;;;4.82;2.38;;;14.90;99.90;;;;;;5030743;28;20052;-74
2022/11/06 03:45:55;;;;;;;3.42;1.88;;;14.80;99.90;;;;;;5047031;28;20556;-74
2022/11/06 03:48:35;;;;;;;5.72;2.33;;;14.80;99.90;;;;;;5030607;28;20800;-75
2022/11/06 03:51:36;;;;;;;5.35;2.13;;;14.80;99.90;;;;;;5030756;28;20364;-74
2022/11/06 03:54:19;;;;;;;4.28;2.80;;;14.80;99.90;;;;;;5043626;28;20060;-74
2022/11/06 03:56:52;;;;;;;2.75;1.88;;;14.80;99.90;;;;;;5030722;28;20136;-74
2022/11/06 03:59:25;;;;;;;4.68;2.30;;;14.80;99.90;;;;;;5047059;28;20087;-75
2022/11/06 04:01:55;;;;;;;4.72;2.55;;;14.80;99.90;;;;;;5055802;28;20044;-74
2022/11/06 04:04:31;;;;;;;2.90;1.83;;;14.80;99.90;;;;;;5050282;28;20463;-74
2022/11/06 04:07:09;;;;;;;4.03;2.40;;;14.80;99.90;;;;;;5066402;28;20060;-74
2022/11/06 04:15:18;;;;;;;3.92;2.10;;;14.80;99.90;;;;;;5066972;28;20131;-74
2022/11/06 04:17:46;;;;;;;5.40;1.98;;;14.90;99.90;;;;;;5066580;28;20048;-74
2022/11/06 04:23:30;;;;;;;3.15;1.50;;;14.90;99.90;;;;;;5066934;28;20045;-74
2022/11/06 04:26:35;;;;;;;3.95;2.25;;;14.90;99.90;;;;;;5050007;28;20376;-74
2022/11/06 04:29:56;;;;;;;2.80;1.70;;;14.90;99.90;;;;;;5065037;28;20055;-75
2022/11/06 04:33:02;;;;;;;3.05;1.73;;;14.90;99.90;;;;;;5006459;28;20054;-75
2022/11/06 04:36:00;;;;;;;3.05;2.13;;;14.90;99.90;;;;;;5037367;28;20199;-74
2022/11/06 04:38:58;;;;;;;3.22;1.83;;;14.90;99.90;;;;;;5070471;28;20116;-74
2022/11/06 04:41:49;;;;;;;4.28;2.38;;;14.90;99.90;;;;;;5054228;28;20043;-74
2022/11/06 04:44:22;;;;;;;3.90;1.90;;;14.80;99.90;;;;;;5070234;28;20446;-74
2022/11/06 04:47:10;;;;;;;3.53;1.90;;;14.80;99.90;;;;;;5054105;28;20067;-74
2022/11/06 04:49:40;;;;;;;3.08;1.60;;;14.70;99.90;;;;;;5037308;28;20063;-74
2022/11/06 04:52:12;;;;;;;2.90;1.80;;;14.60;99.90;;;;;;5070156;28;20040;-75
2022/11/06 04:54:40;;;;;;;2.83;1.70;;;14.60;99.90;;;;;;5070610;28;20044;-74
2022/11/06 04:57:09;;;;;;;3.72;2.17;;;14.50;99.90;;;;;;5070053;28;20048;-74
2022/11/06 04:59:37;;;;;;;4.07;2.15;;;14.50;99.90;;;;;;5053547;28;20533;-74
2022/11/06 05:02:05;;;;;;;3.05;2.05;;;14.40;99.90;;;;;;5053699;28;20379;-74
2022/11/06 05:04:32;;;;;;;3.25;2.40;;;14.50;99.90;;;;;;5069830;28;20102;-74
2022/11/06 05:07:00;;;;;;;3.10;1.75;;;14.50;99.90;;;;;;5053019;28;20141;-74
2022/11/06 05:09:28;;;;;;;8.07;2.40;;;14.40;99.90;;;;;;5071525;28;20115;-76
2022/11/06 05:11:55;;;;;;;5.80;2.53;;;14.30;99.90;;;;;;5053162;28;20056;-77
2022/11/06 05:14:23;;;;;;;4.15;2.97;;;14.10;99.90;;;;;;5069058;28;20159;-74
2022/11/06 05:16:50;;;;;;;7.60;3.10;;;14.00;99.90;;;;;;5063799;28;20106;-74
2022/11/06 05:19:18;;;;;;;5.70;2.30;;;14.00;99.90;;;;;;5068533;28;20037;-74
2022/11/06 05:24:31;;;;;;;5.68;2.63;;;13.90;99.90;;;;;;5061681;28;20036;-75
2022/11/06 05:26:59;;;;;;;3.97;2.15;;;13.90;99.90;;;;;;5051025;28;20044;-74
2022/11/06 05:29:26;;;;;;;3.88;2.22;;;14.10;99.90;;;;;;5049941;28;20585;-74
2022/11/06 05:31:54;;;;;;;4.32;2.85;;;14.10;99.90;;;;;;5049727;28;20400;-74
2022/11/06 05:34:22;;;;;;;3.78;2.28;;;14.10;99.90;;;;;;5049188;28;20041;-74
2022/11/06 05:36:50;;;;;;;3.38;2.20;;;14.20;99.90;;;;;;5049718;28;20148;-74
2022/11/06 05:39:17;;;;;;;4.25;2.47;;;14.20;99.90;;;;;;5065865;28;20053;-75
2022/11/06 05:41:45;;;;;;;4.15;2.30;;;14.30;99.90;;;;;;5032710;28;20182;-73
2022/11/06 05:44:12;;;;;;;5.75;2.42;;;14.30;99.90;;;;;;5048198;28;20471;-73
2022/11/06 05:46:40;;;;;;;3.88;1.67;;;14.20;99.90;;;;;;5033008;28;20091;-73
2022/11/06 05:49:17;;;;;;;3.42;1.77;;;14.40;99.90;;;;;;5032958;28;20459;-73
2022/11/06 05:51:45;;;;;;;4.45;2.30;;;14.60;99.90;;;;;;5065826;28;20118;-75
2022/11/06 05:54:13;;;;;;;2.33;1.63;;;14.90;99.90;;;;;;5048702;28;20048;-74
2022/11/06 05:56:41;;;;;;;2.67;1.55;;;15.20;99.90;;;;;;5049267;28;20072;-73
2022/11/06 05:59:08;;;;;;;3.03;1.60;;;15.60;99.90;;;;;;5048172;28;20143;-73
2022/11/06 06:01:36;;;;;;;2.92;1.77;;;16.10;99.90;;;;;;5048726;28;20051;-73
2022/11/06 06:04:04;;;;;;;3.88;1.63;;;16.40;99.90;;;;;;5048795;28;20057;-75
2022/11/06 06:06:32;;;;;;;5.45;1.75;;;16.60;99.90;;;;;;5048851;28;20436;-74
2022/11/06 06:08:59;;;;;;;2.65;1.65;;;16.60;99.90;;;;;;5065177;28;20566;-73
2022/11/06 06:11:27;;;;;;;9.25;1.42;;;16.60;99.90;;;;;;5051013;28;20052;-74
2022/11/06 06:13:54;;;;;;;2.17;1.13;;;16.50;99.90;;;;;;5050210;28;20049;-73
2022/11/06 06:16:22;;;;;;;3.85;1.80;;;16.40;99.90;;;;;;5049100;28;20033;-73
2022/11/06 06:18:50;;;;;;;5.53;1.50;;;16.40;99.90;;;;;;5048784;28;20568;-72
2022/11/06 06:21:17;;;;;;;3.33;1.15;;;16.30;99.90;;;;;;5064322;28;20075;-73
2022/11/06 06:23:45;;;;;;;1.85;1.10;;;16.30;99.90;;;;;;5052195;28;20105;-74
2022/11/06 06:26:12;;;;;;;2.85;1.50;;;16.30;99.90;;;;;;5070041;28;20040;-73
2022/11/06 06:28:40;;;;;;;1.63;1.08;;;16.30;99.90;;;;;;5068450;28;20054;-74
2022/11/06 06:31:08;;;;;;;2.85;1.75;;;16.50;99.90;;;;;;5067583;28;20168;-73
2022/11/06 06:33:36;;;;;;;3.47;1.55;;;16.60;99.90;;;;;;5068254;28;20470;-73
2022/11/06 06:36:04;;;;;;;2.08;1.20;;;16.80;99.90;;;;;;5067679;28;20410;-73
2022/11/06 06:38:32;;;;;;;3.00;1.63;;;17.00;99.90;;;;;;5051566;28;20040;-72
2022/11/06 06:41:02;;;;;;;2.47;1.30;;;17.30;99.90;;;;;;5067983;28;20060;-79
2022/11/06 06:43:30;;;;;;;4.60;1.88;;;17.70;99.90;;;;;;5068101;28;20117;-74
2022/11/06 06:45:58;;;;;;;1.35;1.00;;;18.10;99.90;;;;;;5034464;28;20083;-74
2022/11/06 06:48:27;;;;;;;4.20;1.67;;;18.50;99.90;;;;;;5064482;28;20071;-73
2022/11/06 06:51:02;;;;;;;4.18;1.60;;;18.80;99.90;;;;;;5039211;28;20048;-73
2022/11/06 06:53:29;;;;;;;3.85;1.52;;;19.00;99.90;;;;;;5061666;28;20042;-76
2022/11/06 06:55:59;;;;;;;1.98;1.33;;;19.10;99.90;;;;;;5035777;28;20140;-75
2022/11/06 06:58:28;;;;;;;1.38;1.05;;;19.10;99.90;;;;;;5036914;28;20057;-75
2022/11/06 07:01:03;;;;;;;1.88;1.08;;;19.20;99.90;;;;;;5038390;28;20753;-75
2022/11/06 07:03:32;;;;;;;1.88;1.25;;;19.20;99.90;;;;;;5045926;28;20051;-77
2022/11/06 07:06:00;;;;;;;1.15;0.80;;;19.20;99.90;;;;;;5020882;28;20056;-75
2022/11/06 07:08:28;;;;;;;2.75;1.25;;;19.20;99.90;;;;;;5032501;28;20037;-75
2022/11/06 07:11:03;;;;;;;1.63;1.35;;;19.30;99.90;;;;;;5060527;28;20045;-76
2022/11/06 07:13:31;;;;;;;3.17;1.30;;;19.30;99.90;;;;;;5066038;28;20052;-75
2022/11/06 07:16:06;;;;;;;2.53;1.13;;;19.40;99.90;;;;;;5049812;28;20074;-76
2022/11/06 07:18:35;;;;;;;2.55;1.17;;;19.40;99.90;;;;;;5049588;28;20449;-75
2022/11/06 07:21:08;;;;;;;5.90;1.52;;;19.40;99.90;;;;;;5041976;28;20044;-75
2022/11/06 07:23:36;;;;;;;2.13;1.00;;;19.40;99.90;;;;;;5066589;28;20043;-75
2022/11/06 07:26:06;;;;;;;2.38;0.90;;;19.40;99.90;;;;;;5032317;28;20052;-76
2022/11/06 07:28:34;;;;;;;2.35;1.27;;;19.50;99.90;;;;;;5049934;28;20109;-75
2022/11/06 07:31:04;;;;;;;3.40;1.10;;;19.50;99.90;;;;;;5045254;28;20067;-75
2022/11/06 07:33:33;;;;;;;3.15;1.55;;;19.50;99.90;;;;;;5049689;28;20060;-73
2022/11/06 07:36:06;;;;;;;2.10;1.10;;;19.40;99.90;;;;;;5048560;28;20048;-75
2022/11/06 07:38:35;;;;;;;2.10;1.02;;;19.30;99.90;;;;;;5065933;28;20053;-75
2022/11/06 07:41:12;;;;;;;2.25;1.33;;;19.30;99.90;;;;;;5058675;28;20128;-74
2022/11/06 07:43:41;;;;;;;2.38;1.35;;;19.40;99.90;;;;;;5044928;28;20475;-74
2022/11/06 07:46:11;;;;;;;2.75;1.00;;;19.60;99.90;;;;;;5065527;28;20044;-74
2022/11/06 07:48:39;;;;;;;2.00;1.15;;;19.70;99.90;;;;;;5031288;28;20052;-75
2022/11/06 07:51:09;;;;;;;2.58;1.55;;;19.80;99.90;;;;;;5045084;28;20562;-74
2022/11/06 07:53:37;;;;;;;3.13;1.08;;;19.90;99.90;;;;;;5066076;28;20048;-74
2022/11/06 07:56:07;;;;;;;2.22;1.13;;;20.00;99.90;;;;;;5031449;28;20593;-74
2022/11/06 07:58:35;;;;;;;2.67;1.30;;;20.10;99.90;;;;;;5030024;28;20172;-74
2022/11/06 08:01:03;;;;;;;3.92;1.67;;;20.10;99.90;;;;;;5062913;28;20098;-74
2022/11/06 08:03:31;;;;;;;2.65;1.25;;;20.00;99.90;;;;;;5048595;28;20045;-73
2022/11/06 08:06:03;;;;;;;4.03;1.38;;;19.90;99.90;;;;;;5054670;28;20068;-74
2022/11/06 08:08:30;;;;;;;5.88;2.47;;;19.80;99.90;;;;;;5064979;28;20025;-73
2022/11/06 08:11:16;;;;;;;2.80;1.63;;;19.60;99.90;;;;;;5049140;28;20080;-74
2022/11/06 08:13:44;;;;;;;2.78;1.30;;;19.60;99.90;;;;;;5035241;28;20495;-74
2022/11/06 08:16:13;;;;;;;3.67;1.92;;;19.50;99.90;;;;;;5063968;28;20444;-76
2022/11/06 08:18:41;;;;;;;4.35;1.33;;;19.40;99.90;;;;;;5045882;28;20059;-73
2022/11/06 08:21:09;;;;;;;3.90;1.85;;;19.40;99.90;;;;;;5050210;28;20143;-74
2022/11/06 08:23:36;;;;;;;2.05;1.20;;;19.30;99.90;;;;;;5048655;28;20802;-74
2022/11/06 08:26:06;;;;;;;2.20;0.75;;;19.20;99.90;;;;;;5043590;28;20135;-74
2022/11/06 08:28:34;;;;;;;4.50;1.90;;;19.10;99.90;;;;;;5032340;28;20146;-74
2022/11/06 08:31:04;;;;;;;3.95;1.08;;;18.90;99.90;;;;;;5062999;28;20059;-74
2022/11/06 08:33:32;;;;;;;3.15;1.17;;;18.70;99.90;;;;;;5038022;28;20502;-75
2022/11/06 08:36:02;;;;;;;4.15;1.30;;;18.50;99.90;;;;;;5049568;28;20108;-73
2022/11/06 08:38:30;;;;;;;3.08;1.30;;;18.40;99.90;;;;;;5052211;28;20041;-74
2022/11/06 08:40:57;;;;;;;2.15;0.90;;;18.40;99.90;;;;;;5050026;28;20068;-75
2022/11/06 08:43:26;;;;;;;2.08;1.20;;;18.30;99.90;;;;;;5066066;28;20056;-76
2022/11/06 08:45:54;;;;;;;1.75;1.15;;;18.30;99.90;;;;;;5035387;28;20611;-77
2022/11/06 08:48:22;;;;;;;6.40;2.13;;;18.30;99.90;;;;;;5068873;28;20036;-77
2022/11/06 08:50:49;;;;;;;2.22;1.10;;;18.40;99.90;;;;;;5067734;28;20044;-75
2022/11/06 08:53:17;;;;;;;3.95;1.00;;;18.50;99.90;;;;;;5068217;28;20055;-76
2022/11/06 08:55:45;;;;;;;1.67;0.90;;;18.60;99.90;;;;;;5067124;28;20118;-77
2022/11/06 08:58:13;;;;;;;1.58;1.05;;;18.70;99.90;;;;;;5067969;28;20063;-75
2022/11/06 09:00:41;;;;;;;3.20;1.10;;;18.80;99.90;;;;;;5050966;28;20390;-76
2022/11/06 09:03:12;;;;;;;2.15;1.38;;;18.80;99.90;;;;;;5046606;28;20051;-76
2022/11/06 09:05:41;;;;;;;2.72;1.25;;;18.80;99.90;;;;;;5042558;28;20059;-76
2022/11/06 09:08:10;;;;;;;3.17;1.15;;;18.90;99.90;;;;;;5046756;28;20053;-80
2022/11/06 09:10:40;;;;;;;2.22;1.48;;;18.90;99.90;;;;;;5067402;28;20095;-76
2022/11/06 09:13:08;;;;;;;3.67;1.60;;;18.90;99.90;;;;;;5042740;28;20166;-78
2022/11/06 09:15:36;;;;;;;3.58;1.20;;;18.90;99.90;;;;;;5066152;28;20040;-74
2022/11/06 09:18:04;;;;;;;5.55;1.60;;;19.10;99.90;;;;;;5050608;28;20048;-75
2022/11/06 09:20:32;;;;;;;4.93;2.13;;;19.10;99.90;;;;;;5064432;28;20509;-74
2022/11/06 09:23:02;;;;;;;3.92;2.28;;;19.30;99.90;;;;;;5049320;28;20061;-75
2022/11/06 09:25:30;;;;;;;5.20;1.50;;;19.30;99.90;;;;;;5062943;28;20181;-76
2022/11/06 09:27:58;;;;;;;2.40;1.30;;;19.50;99.90;;;;;;5050833;28;20044;-76
2022/11/06 09:30:30;;;;;;;4.05;1.30;;;19.70;99.90;;;;;;5027115;28;20395;-76
2022/11/06 09:33:00;;;;;;;2.35;1.35;;;19.80;99.90;;;;;;5068228;28;20048;-72
2022/11/06 09:35:31;;;;;;;3.63;1.55;;;19.70;99.90;;;;;;5062176;28;20102;-74
2022/11/06 09:38:04;;;;;;;2.33;1.30;;;19.90;99.90;;;;;;5048122;28;20049;-74
2022/11/06 09:40:38;;;;;;;3.63;1.33;;;20.10;99.90;;;;;;5064985;28;20495;-73
2022/11/06 09:43:50;;;;;;;2.00;1.20;;;20.40;99.90;;;;;;5055517;28;20214;-73
2022/11/06 09:46:36;;;;;;;4.43;1.52;;;20.70;99.90;;;;;;4988547;28;20057;-74
2022/11/06 09:49:29;;;;;;;6.03;1.20;;;20.70;99.90;;;;;;5057334;28;20044;-72
2022/11/06 09:52:02;;;;;;;3.13;1.55;;;20.70;99.90;;;;;;5019893;28;20183;-75
2022/11/06 09:54:42;;;;;;;7.40;1.98;;;20.70;99.90;;;;;;5050724;28;20383;-73
2022/11/06 09:57:22;;;;;;;7.72;2.88;;;20.80;99.90;;;;;;5067002;28;20044;-73
2022/11/06 09:59:50;;;;;;;2.33;1.33;;;21.00;99.90;;;;;;5032606;28;20048;-73
2022/11/06 10:02:44;;;;;;;5.85;1.27;;;21.00;99.90;;;;;;5033524;28;20055;-75
2022/11/06 10:05:34;;;;;;;3.00;1.50;;;21.00;99.90;;;;;;5057849;28;20076;-75
2022/11/06 10:08:16;;;;;;;2.28;1.58;;;20.90;99.90;;;;;;5047305;28;20045;-74
2022/11/06 10:11:02;;;;;;;3.10;1.45;;;21.00;99.90;;;;;;5034578;28;20071;-74
2022/11/06 10:13:59;;;;;;;2.70;1.52;;;21.00;99.90;;;;;;5053633;28;20048;-75
2022/11/06 10:16:38;;;;;;;4.30;1.88;;;21.20;99.90;;;;;;5069609;28;20056;-75
2022/11/06 10:19:25;;;;;;;2.90;1.40;;;21.30;99.90;;;;;;5066750;28;20067;-75
2022/11/06 10:22:13;;;;;;;5.03;1.85;;;21.30;99.90;;;;;;5045822;28;20044;-75
2022/11/06 10:24:48;;;;;;;1.98;1.23;;;21.20;99.90;;;;;;5045282;28;20054;-73
2022/11/06 10:27:32;;;;;;;3.28;1.15;;;21.20;99.90;;;;;;5048633;28;20127;-75
2022/11/06 10:30:10;;;;;;;2.58;1.05;;;21.00;99.90;;;;;;5033737;28;20052;-75
2022/11/06 10:32:47;;;;;;;3.33;1.10;;;21.10;99.90;;;;;;5062516;28;20044;-75
2022/11/06 10:35:38;;;;;;;1.52;0.95;;;21.20;99.90;;;;;;5051405;28;20048;-76
2022/11/06 10:38:12;;;;;;;1.35;1.00;;;21.30;99.90;;;;;;5053595;28;20037;-73
2022/11/06 10:40:43;;;;;;;6.82;2.03;;;21.60;99.90;;;;;;5031207;28;20053;-74
2022/11/06 10:43:57;;;;;;;2.92;1.73;;;21.80;99.90;;;;;;5054796;28;20060;-75
2022/11/06 10:46:50;;;;;;;3.90;1.27;;;21.80;99.90;;;;;;5029838;28;20103;-75
2022/11/06 10:49:29;;;;;;;1.95;1.40;;;21.90;99.90;;;;;;5046970;28;20052;-76
2022/11/06 10:52:10;;;;;;;2.65;1.23;;;21.80;99.90;;;;;;5033782;28;20060;-76
2022/11/06 10:54:46;;;;;;;3.15;1.25;;;21.80;99.90;;;;;;5038599;28;20097;-75
2022/11/06 10:57:16;;;;;;;1.30;0.82;;;21.80;99.90;;;;;;5064805;28;20036;-75
2022/11/06 10:59:44;;;;;;;2.15;1.02;;;21.90;99.90;;;;;;5066492;28;20448;-74
2022/11/06 11:02:23;;;;;;;6.82;1.60;;;21.80;99.90;;;;;;5065337;28;20049;-76
2022/11/06 11:04:51;;;;;;;2.00;0.95;;;21.90;99.90;;;;;;5067831;28;20047;-77
2022/11/06 11:07:23;;;;;;;3.35;1.10;;;21.90;99.90;;;;;;5068117;28;20040;-76
2022/11/06 11:09:51;;;;;;;2.33;0.88;;;21.90;99.90;;;;;;5033953;28;20052;-76
2022/11/06 11:12:26;;;;;;;6.80;1.50;;;21.90;99.90;;;;;;5034000;28;20056;-75
2022/11/06 11:15:13;;;;;;;6.97;6.35;;;21.80;99.90;;;;;;5050984;28;20482;-78
2022/11/06 11:17:42;;;;;;;3.67;1.60;;;21.70;99.90;;;;;;5050889;28;20070;-75
2022/11/06 11:20:31;;;;;;;6.05;1.20;;;21.80;99.90;;;;;;5064984;28;20052;-76
2022/11/06 11:23:17;;;;;;;2.42;1.13;;;21.70;99.90;;;;;;5048431;28;20521;-76
2022/11/06 11:25:50;;;;;;;1.73;0.90;;;21.60;99.90;;;;;;5048674;28;20045;-75
2022/11/06 11:28:35;;;;;;;2.58;0.95;;;21.70;99.90;;;;;;5032051;28;20139;-76
2022/11/06 11:31:13;;;;;;;1.63;0.85;;;21.70;99.90;;;;;;5050218;28;20048;-75
2022/11/06 11:33:52;;;;;;;1.08;0.70;;;21.80;99.90;;;;;;5067483;28;20106;-73
2022/11/06 11:36:19;;;;;;;1.27;0.88;;;21.80;99.90;;;;;;5050472;28;20091;-72
2022/11/06 11:38:47;;;;;;;2.10;0.98;;;22.00;99.90;;;;;;5033860;28;20131;-72
2022/11/06 11:41:18;;;;;;;1.27;0.60;;;22.00;99.90;;;;;;5050699;28;20041;-72
2022/11/06 11:44:16;;;;;;;1.85;0.98;;;22.00;99.90;;;;;;5033243;28;20167;-72
2022/11/06 11:46:54;;;;;;;1.60;1.20;;;21.90;99.90;;;;;;5039024;28;20048;-72
2022/11/06 11:49:27;;;;;;;1.15;0.80;;;21.70;99.90;;;;;;5050748;28;20060;-72
2022/11/06 11:51:58;;;;;;;1.80;0.60;;;21.50;99.90;;;;;;5050240;28;20061;-74
2022/11/06 11:54:29;;;;;;;2.00;0.70;;;21.50;99.90;;;;;;5048224;28;20045;-72
2022/11/06 11:57:00;;;;;;;6.03;1.83;;;21.50;99.90;;;;;;5033899;28;20456;-73
2022/11/06 11:59:42;;;;;;;0.75;0.57;;;21.50;99.90;;;;;;5067028;28;20045;-72
2022/11/06 12:02:29;;;;;;;2.85;1.77;;;21.30;99.90;;;;;;5043606;28;20475;-73
2022/11/06 12:05:01;;;;;;;2.03;1.13;;;21.20;99.90;;;;;;5037407;28;20060;-74
2022/11/06 12:07:35;;;;;;;2.78;0.50;;;21.30;99.90;;;;;;5041886;28;20113;-74
2022/11/06 12:10:24;;;;;;;1.10;0.73;;;21.30;99.90;;;;;;5049108;28;20051;-75
2022/11/06 12:12:54;;;;;;;0.60;0.60;;;21.00;99.90;;;;;;5032252;28;20045;-74
2022/11/06 12:15:58;;;;;;;3.20;1.02;;;20.80;99.90;;;;;;5050747;28;20060;-73
2022/11/06 12:18:40;;;;;;;1.10;0.70;;;20.50;99.90;;;;;;5061694;28;20049;-75
2022/11/06 12:21:14;;;;;;;3.42;1.35;;;20.30;99.90;;;;;;5066265;28;20040;-73
2022/11/06 12:23:50;;;;;;;3.22;1.02;;;20.30;99.90;;;;;;5032117;28;21091;-72
2022/11/06 12:26:26;;;;;;;3.42;1.77;;;20.30;99.90;;;;;;5064995;28;20542;-76
2022/11/06 12:28:59;;;;;;;2.45;1.13;;;20.20;99.90;;;;;;5065964;28;20131;-74
2022/11/06 12:32:01;;;;;;;2.20;0.90;;;20.20;99.90;;;;;;5049656;28;20048;-74
2022/11/06 12:35:04;;;;;;;3.53;0.93;;;20.00;99.90;;;;;;5066573;28;20083;-74
2022/11/06 12:38:02;;;;;;;0.77;0.50;;;20.10;99.90;;;;;;5064799;28;20135;-74
2022/11/06 12:40:44;;;;;;;2.20;0.60;;;20.10;99.90;;;;;;5062390;28;20114;-76
2022/11/06 12:43:40;;;;;;;0.63;0.60;;;20.10;99.90;;;;;;5048292;28;20113;-74
2022/11/06 12:46:19;;;;;;;3.78;1.38;;;20.10;99.90;;;;;;5048000;28;20067;-74
2022/11/06 12:49:08;;;;;;;1.13;0.60;;;20.00;99.90;;;;;;5048165;28;20078;-74
2022/11/06 12:51:36;;;;;;;2.22;0.68;;;19.90;99.90;;;;;;5047679;28;20438;-73
2022/11/06 12:54:18;;;;;;;0.98;0.70;;;19.90;99.90;;;;;;5032093;28;20081;-74
2022/11/06 12:56:58;;;;;;;0.77;0.57;;;19.80;99.90;;;;;;5050161;28;20033;-74
2022/11/06 12:59:29;;;;;;;0.50;0.50;;;19.70;99.90;;;;;;5051721;28;20130;-73
2022/11/06 13:02:18;;;;;;;1.60;1.20;;;19.60;99.90;;;;;;5017012;28;20077;-74
2022/11/06 13:05:05;;;;;;;1.08;0.90;;;19.60;99.90;;;;;;5033787;28;20053;-73
2022/11/06 13:07:59;;;;;;;1.63;1.00;;;19.60;99.90;;;;;;5051507;28;20071;-73
2022/11/06 13:10:42;;;;;;;0.82;0.60;;;19.60;99.90;;;;;;5017486;28;20048;-74
2022/11/06 13:13:47;;;;;;;1.23;0.85;;;19.60;99.90;;;;;;5050149;28;20486;-73
2022/11/06 13:16:20;;;;;;;1.95;0.50;;;19.50;99.90;;;;;;5051368;28;20126;-73
2022/11/06 13:19:11;;;;;;;0.55;0.40;;;19.60;99.90;;;;;;5033346;28;20111;-73
2022/11/06 13:21:51;;;;;;;1.55;1.27;;;19.60;99.90;;;;;;5033104;28;20464;-74
2022/11/06 13:24:36;;;;;;;2.88;1.50;;;19.60;99.90;;;;;;5049372;28;20095;-73
2022/11/06 13:27:30;;;;;;;2.72;1.63;;;19.50;99.90;;;;;;5049750;28;20052;-73
2022/11/06 13:30:02;;;;;;;2.15;1.13;;;19.50;99.90;;;;;;5033841;28;20514;-73
2022/11/06 13:32:33;;;;;;;1.85;1.23;;;19.40;99.90;;;;;;5042292;28;20121;-74
2022/11/06 13:35:02;;;;;;;1.90;1.15;;;19.40;99.90;;;;;;5032976;28;20053;-73